sensor_id;sensor_type;location;lat;lon;timestamp;pressure;altitude;pressure_sealevel;temperature;humidity
2681;BME280;1350;42.134;24.708;2024-01-06T00:00:10;99317.72;;;8.49;100.00
2681;BME280;1350;42.134;24.708;2024-01-06T00:02:37;99321.75;;;8.75;100.00
2681;BME280;1350;42.134;24.708;2024-01-06T00:05:05;99321.84;;;8.55;100.00
2681;BME280;1350;42.134;24.708;2024-01-06T00:07:33;99314.84;;;8.73;100.00
2681;BME280;1350;42.134;24.708;2024-01-06T00:10:00;99302.97;;;8.45;100.00
2681;BME280;1350;42.134;24.708;2024-01-06T00:12:27;99311.75;;;8.27;100.00
2681;BME280;1350;42.134;24.708;2024-01-06T00:14:54;99311.31;;;8.36;100.00
2681;BME280;1350;42.134;24.708;2024-01-06T00:17:21;99315.13;;;8.31;100.00
2681;BME280;1350;42.134;24.708;2024-01-06T00:19:48;99320.63;;;7.88;100.00
2681;BME280;1350;42.134;24.708;2024-01-06T00:22:16;99320.50;;;8.09;100.00
2681;BME280;1350;42.134;24.708;2024-01-06T00:24:45;99323.94;;;8.11;100.00
2681;BME280;1350;42.134;24.708;2024-01-06T00:27:12;99337.47;;;8.24;100.00
2681;BME280;1350;42.134;24.708;2024-01-06T00:29:40;99335.38;;;8.30;100.00
2681;BME280;1350;42.134;24.708;2024-01-06T00:32:07;99340.91;;;8.06;100.00
2681;BME280;1350;42.134;24.708;2024-01-06T00:34:34;99344.38;;;8.26;100.00
2681;BME280;1350;42.134;24.708;2024-01-06T00:37:01;99330.53;;;8.40;100.00
2681;BME280;1350;42.134;24.708;2024-01-06T00:39:28;99332.94;;;8.44;100.00
2681;BME280;1350;42.134;24.708;2024-01-06T00:41:56;99330.81;;;8.34;100.00
2681;BME280;1350;42.134;24.708;2024-01-06T00:44:23;99322.75;;;8.37;100.00
2681;BME280;1350;42.134;24.708;2024-01-06T00:46:50;99312.44;;;8.49;100.00
2681;BME280;1350;42.134;24.708;2024-01-06T00:49:17;99306.19;;;8.33;100.00
2681;BME280;1350;42.134;24.708;2024-01-06T00:51:44;99302.19;;;8.25;100.00
2681;BME280;1350;42.134;24.708;2024-01-06T00:54:11;99289.63;;;8.30;100.00
2681;BME280;1350;42.134;24.708;2024-01-06T00:56:38;99299.47;;;8.45;100.00
2681;BME280;1350;42.134;24.708;2024-01-06T00:59:09;99304.19;;;8.38;100.00
2681;BME280;1350;42.134;24.708;2024-01-06T01:01:36;99306.69;;;8.23;100.00
2681;BME280;1350;42.134;24.708;2024-01-06T01:04:03;99302.31;;;8.22;100.00
2681;BME280;1350;42.134;24.708;2024-01-06T01:06:30;99311.03;;;7.87;100.00
2681;BME280;1350;42.134;24.708;2024-01-06T01:08:57;99313.16;;;7.79;100.00
2681;BME280;1350;42.134;24.708;2024-01-06T01:11:24;99309.81;;;7.94;100.00
2681;BME280;1350;42.134;24.708;2024-01-06T01:13:51;99299.91;;;7.99;100.00
2681;BME280;1350;42.134;24.708;2024-01-06T01:16:19;99283.16;;;7.61;100.00
2681;BME280;1350;42.134;24.708;2024-01-06T01:18:46;99282.03;;;7.67;100.00
2681;BME280;1350;42.134;24.708;2024-01-06T01:21:14;99280.25;;;7.67;100.00
2681;BME280;1350;42.134;24.708;2024-01-06T01:23:42;99278.84;;;7.79;100.00
2681;BME280;1350;42.134;24.708;2024-01-06T01:26:09;99288.59;;;7.95;100.00
2681;BME280;1350;42.134;24.708;2024-01-06T01:28:36;99293.75;;;7.98;100.00
2681;BME280;1350;42.134;24.708;2024-01-06T01:31:03;99295.03;;;7.90;100.00
2681;BME280;1350;42.134;24.708;2024-01-06T01:33:31;99297.09;;;8.02;100.00
2681;BME280;1350;42.134;24.708;2024-01-06T01:35:58;99297.47;;;7.94;100.00
2681;BME280;1350;42.134;24.708;2024-01-06T01:38:25;99304.13;;;7.64;100.00
2681;BME280;1350;42.134;24.708;2024-01-06T01:40:52;99290.69;;;7.70;100.00
2681;BME280;1350;42.134;24.708;2024-01-06T01:43:19;99287.97;;;7.90;100.00
2681;BME280;1350;42.134;24.708;2024-01-06T01:45:50;99300.69;;;7.82;100.00
2681;BME280;1350;42.134;24.708;2024-01-06T01:48:19;99298.53;;;8.09;100.00
2681;BME280;1350;42.134;24.708;2024-01-06T01:50:48;99306.66;;;8.04;100.00
2681;BME280;1350;42.134;24.708;2024-01-06T01:53:15;99303.72;;;7.92;100.00
2681;BME280;1350;42.134;24.708;2024-01-06T01:55:43;99292.47;;;8.07;100.00
2681;BME280;1350;42.134;24.708;2024-01-06T01:58:12;99295.81;;;8.10;100.00
2681;BME280;1350;42.134;24.708;2024-01-06T02:00:39;99293.47;;;8.04;100.00
2681;BME280;1350;42.134;24.708;2024-01-06T02:03:07;99290.88;;;7.84;100.00
2681;BME280;1350;42.134;24.708;2024-01-06T02:05:35;99287.97;;;7.33;100.00
2681;BME280;1350;42.134;24.708;2024-01-06T02:08:05;99282.41;;;7.59;100.00
2681;BME280;1350;42.134;24.708;2024-01-06T02:10:32;99277.75;;;7.64;100.00
2681;BME280;1350;42.134;24.708;2024-01-06T02:13:07;99273.06;;;7.32;100.00
2681;BME280;1350;42.134;24.708;2024-01-06T02:15:34;99265.28;;;7.29;100.00
2681;BME280;1350;42.134;24.708;2024-01-06T02:18:01;99260.28;;;7.03;100.00
2681;BME280;1350;42.134;24.708;2024-01-06T02:20:29;99252.38;;;7.03;100.00
2681;BME280;1350;42.134;24.708;2024-01-06T02:22:58;99264.06;;;6.98;100.00
2681;BME280;1350;42.134;24.708;2024-01-06T02:25:26;99256.41;;;7.12;100.00
2681;BME280;1350;42.134;24.708;2024-01-06T02:27:53;99261.34;;;6.99;100.00
2681;BME280;1350;42.134;24.708;2024-01-06T02:30:20;99267.78;;;6.72;100.00
2681;BME280;1350;42.134;24.708;2024-01-06T02:32:47;99266.75;;;6.96;100.00
2681;BME280;1350;42.134;24.708;2024-01-06T02:35:13;99264.53;;;6.87;100.00
2681;BME280;1350;42.134;24.708;2024-01-06T02:37:40;99269.13;;;6.82;100.00
2681;BME280;1350;42.134;24.708;2024-01-06T02:40:10;99262.78;;;6.86;100.00
2681;BME280;1350;42.134;24.708;2024-01-06T02:42:37;99261.34;;;6.99;100.00
2681;BME280;1350;42.134;24.708;2024-01-06T02:45:06;99255.03;;;7.03;100.00
2681;BME280;1350;42.134;24.708;2024-01-06T02:47:33;99255.41;;;6.94;100.00
2681;BME280;1350;42.134;24.708;2024-01-06T02:50:00;99267.03;;;6.90;100.00
2681;BME280;1350;42.134;24.708;2024-01-06T02:52:27;99265.88;;;7.36;100.00
2681;BME280;1350;42.134;24.708;2024-01-06T02:54:54;99258.19;;;7.50;100.00
2681;BME280;1350;42.134;24.708;2024-01-06T02:57:22;99257.94;;;7.56;100.00
2681;BME280;1350;42.134;24.708;2024-01-06T02:59:49;99264.97;;;7.55;100.00
2681;BME280;1350;42.134;24.708;2024-01-06T03:02:16;99260.78;;;7.70;100.00
2681;BME280;1350;42.134;24.708;2024-01-06T03:04:43;99268.13;;;7.82;100.00
2681;BME280;1350;42.134;24.708;2024-01-06T03:07:10;99266.06;;;7.70;100.00
2681;BME280;1350;42.134;24.708;2024-01-06T03:09:37;99262.34;;;7.55;100.00
2681;BME280;1350;42.134;24.708;2024-01-06T03:12:05;99252.56;;;7.57;100.00
2681;BME280;1350;42.134;24.708;2024-01-06T03:14:34;99255.72;;;7.47;100.00
2681;BME280;1350;42.134;24.708;2024-01-06T03:17:01;99253.50;;;7.38;100.00
2681;BME280;1350;42.134;24.708;2024-01-06T03:19:28;99247.75;;;7.28;100.00
2681;BME280;1350;42.134;24.708;2024-01-06T03:21:55;99241.09;;;7.20;100.00
2681;BME280;1350;42.134;24.708;2024-01-06T03:24:23;99232.69;;;6.92;100.00
2681;BME280;1350;42.134;24.708;2024-01-06T03:26:50;99236.75;;;7.19;100.00
2681;BME280;1350;42.134;24.708;2024-01-06T03:29:17;99232.56;;;7.15;100.00
2681;BME280;1350;42.134;24.708;2024-01-06T03:31:46;99230.00;;;7.13;100.00
2681;BME280;1350;42.134;24.708;2024-01-06T03:34:13;99237.50;;;6.82;100.00
2681;BME280;1350;42.134;24.708;2024-01-06T03:36:40;99236.03;;;6.95;100.00
2681;BME280;1350;42.134;24.708;2024-01-06T03:39:07;99239.72;;;7.11;100.00
2681;BME280;1350;42.134;24.708;2024-01-06T03:41:35;99244.47;;;6.83;100.00
2681;BME280;1350;42.134;24.708;2024-01-06T03:44:03;99238.59;;;6.97;100.00
2681;BME280;1350;42.134;24.708;2024-01-06T03:46:30;99232.09;;;7.05;100.00
2681;BME280;1350;42.134;24.708;2024-01-06T03:48:58;99231.50;;;6.99;100.00
2681;BME280;1350;42.134;24.708;2024-01-06T03:51:25;99230.41;;;7.04;100.00
2681;BME280;1350;42.134;24.708;2024-01-06T03:53:52;99229.69;;;7.39;100.00
2681;BME280;1350;42.134;24.708;2024-01-06T03:56:19;99233.47;;;7.52;100.00
2681;BME280;1350;42.134;24.708;2024-01-06T03:58:46;99233.63;;;7.68;100.00
2681;BME280;1350;42.134;24.708;2024-01-06T04:01:13;99235.91;;;7.75;100.00
2681;BME280;1350;42.134;24.708;2024-01-06T04:03:40;99234.69;;;7.82;100.00
2681;BME280;1350;42.134;24.708;2024-01-06T04:06:09;99240.31;;;7.93;100.00
2681;BME280;1350;42.134;24.708;2024-01-06T04:08:36;99236.75;;;7.57;100.00
2681;BME280;1350;42.134;24.708;2024-01-06T04:11:03;99237.97;;;7.50;100.00
2681;BME280;1350;42.134;24.708;2024-01-06T04:13:30;99245.81;;;7.52;100.00
2681;BME280;1350;42.134;24.708;2024-01-06T04:15:57;99243.44;;;7.46;100.00
2681;BME280;1350;42.134;24.708;2024-01-06T04:18:24;99244.31;;;7.26;100.00
2681;BME280;1350;42.134;24.708;2024-01-06T04:20:51;99239.22;;;7.03;100.00
2681;BME280;1350;42.134;24.708;2024-01-06T04:23:19;99230.31;;;7.26;100.00
2681;BME280;1350;42.134;24.708;2024-01-06T04:25:46;99233.19;;;7.20;100.00
2681;BME280;1350;42.134;24.708;2024-01-06T04:28:13;99232.88;;;7.27;100.00
2681;BME280;1350;42.134;24.708;2024-01-06T04:30:40;99233.97;;;7.22;100.00
2681;BME280;1350;42.134;24.708;2024-01-06T04:33:07;99225.06;;;6.85;100.00
2681;BME280;1350;42.134;24.708;2024-01-06T04:35:34;99235.81;;;6.81;100.00
2681;BME280;1350;42.134;24.708;2024-01-06T04:38:01;99229.88;;;6.76;100.00
2681;BME280;1350;42.134;24.708;2024-01-06T04:40:29;99232.50;;;6.96;100.00
2681;BME280;1350;42.134;24.708;2024-01-06T04:42:56;99239.34;;;6.80;100.00
2681;BME280;1350;42.134;24.708;2024-01-06T04:45:23;99248.28;;;6.56;100.00
2681;BME280;1350;42.134;24.708;2024-01-06T04:47:50;99248.16;;;6.59;100.00
2681;BME280;1350;42.134;24.708;2024-01-06T04:50:18;99240.59;;;6.71;100.00
2681;BME280;1350;42.134;24.708;2024-01-06T04:52:45;99248.31;;;6.76;100.00
2681;BME280;1350;42.134;24.708;2024-01-06T04:55:12;99245.81;;;6.93;100.00
2681;BME280;1350;42.134;24.708;2024-01-06T04:57:41;99249.88;;;7.20;100.00
2681;BME280;1350;42.134;24.708;2024-01-06T05:00:08;99247.91;;;7.25;100.00
2681;BME280;1350;42.134;24.708;2024-01-06T05:02:36;99245.19;;;7.27;100.00
2681;BME280;1350;42.134;24.708;2024-01-06T05:05:03;99226.59;;;7.30;100.00
2681;BME280;1350;42.134;24.708;2024-01-06T05:07:30;99237.38;;;7.44;100.00
2681;BME280;1350;42.134;24.708;2024-01-06T05:09:57;99240.78;;;7.46;100.00
2681;BME280;1350;42.134;24.708;2024-01-06T05:12:24;99238.16;;;7.46;100.00
2681;BME280;1350;42.134;24.708;2024-01-06T05:14:52;99243.28;;;7.30;100.00
2681;BME280;1350;42.134;24.708;2024-01-06T05:17:19;99228.53;;;6.66;100.00
2681;BME280;1350;42.134;24.708;2024-01-06T05:19:46;99244.00;;;6.93;100.00
2681;BME280;1350;42.134;24.708;2024-01-06T05:22:13;99254.16;;;6.62;100.00
2681;BME280;1350;42.134;24.708;2024-01-06T05:24:40;99238.03;;;6.70;100.00
2681;BME280;1350;42.134;24.708;2024-01-06T05:27:07;99240.81;;;6.87;100.00
2681;BME280;1350;42.134;24.708;2024-01-06T05:29:34;99246.72;;;6.72;100.00
2681;BME280;1350;42.134;24.708;2024-01-06T05:32:03;99260.09;;;6.87;100.00
2681;BME280;1350;42.134;24.708;2024-01-06T05:34:30;99261.97;;;7.06;100.00
2681;BME280;1350;42.134;24.708;2024-01-06T05:36:57;99262.28;;;6.78;100.00
2681;BME280;1350;42.134;24.708;2024-01-06T05:39:24;99262.53;;;6.92;100.00
2681;BME280;1350;42.134;24.708;2024-01-06T05:41:51;99271.78;;;6.60;100.00
2681;BME280;1350;42.134;24.708;2024-01-06T05:44:18;99281.75;;;6.74;100.00
2681;BME280;1350;42.134;24.708;2024-01-06T05:46:45;99275.44;;;6.78;100.00
2681;BME280;1350;42.134;24.708;2024-01-06T05:49:13;99268.59;;;6.74;100.00
2681;BME280;1350;42.134;24.708;2024-01-06T05:51:44;99262.97;;;6.61;100.00
2681;BME280;1350;42.134;24.708;2024-01-06T05:54:11;99257.72;;;6.81;100.00
2681;BME280;1350;42.134;24.708;2024-01-06T05:56:38;99262.78;;;6.86;100.00
2681;BME280;1350;42.134;24.708;2024-01-06T05:59:05;99257.13;;;6.55;100.00
2681;BME280;1350;42.134;24.708;2024-01-06T06:01:32;99260.88;;;6.69;100.00
2681;BME280;1350;42.134;24.708;2024-01-06T06:03:59;99251.78;;;7.17;100.00
2681;BME280;1350;42.134;24.708;2024-01-06T06:06:28;99253.31;;;7.22;100.00
2681;BME280;1350;42.134;24.708;2024-01-06T06:08:54;99249.13;;;7.37;100.00
2681;BME280;1350;42.134;24.708;2024-01-06T06:11:21;99242.53;;;7.47;100.00
2681;BME280;1350;42.134;24.708;2024-01-06T06:13:48;99244.16;;;7.49;100.00
2681;BME280;1350;42.134;24.708;2024-01-06T06:16:15;99247.78;;;7.47;100.00
2681;BME280;1350;42.134;24.708;2024-01-06T06:18:42;99240.09;;;7.42;100.00
2681;BME280;1350;42.134;24.708;2024-01-06T06:21:09;99241.72;;;6.86;100.00
2681;BME280;1350;42.134;24.708;2024-01-06T06:23:38;99236.69;;;6.60;100.00
2681;BME280;1350;42.134;24.708;2024-01-06T06:26:05;99218.72;;;6.89;100.00
2681;BME280;1350;42.134;24.708;2024-01-06T06:28:33;99221.91;;;6.98;100.00
2681;BME280;1350;42.134;24.708;2024-01-06T06:31:01;99214.53;;;6.85;100.00
2681;BME280;1350;42.134;24.708;2024-01-06T06:33:28;99208.53;;;6.62;100.00
2681;BME280;1350;42.134;24.708;2024-01-06T06:36:22;99201.00;;;6.93;100.00
2681;BME280;1350;42.134;24.708;2024-01-06T06:38:50;99203.13;;;6.85;100.00
2681;BME280;1350;42.134;24.708;2024-01-06T06:41:17;99208.06;;;6.93;100.00
2681;BME280;1350;42.134;24.708;2024-01-06T06:43:47;99200.41;;;6.86;100.00
2681;BME280;1350;42.134;24.708;2024-01-06T06:46:14;99212.66;;;6.87;100.00
2681;BME280;1350;42.134;24.708;2024-01-06T06:48:41;99208.63;;;7.19;100.00
2681;BME280;1350;42.134;24.708;2024-01-06T06:51:08;99218.50;;;7.14;100.00
2681;BME280;1350;42.134;24.708;2024-01-06T06:53:36;99218.91;;;7.05;100.00
2681;BME280;1350;42.134;24.708;2024-01-06T06:56:05;99204.47;;;7.14;100.00
2681;BME280;1350;42.134;24.708;2024-01-06T06:58:32;99219.00;;;7.61;100.00
2681;BME280;1350;42.134;24.708;2024-01-06T07:00:59;99223.41;;;7.79;100.00
2681;BME280;1350;42.134;24.708;2024-01-06T07:03:26;99216.00;;;7.87;100.00
2681;BME280;1350;42.134;24.708;2024-01-06T07:05:53;99218.44;;;7.91;100.00
2681;BME280;1350;42.134;24.708;2024-01-06T07:08:20;99203.16;;;7.98;100.00
2681;BME280;1350;42.134;24.708;2024-01-06T07:10:47;99189.31;;;7.93;100.00
2681;BME280;1350;42.134;24.708;2024-01-06T07:13:17;99188.47;;;7.74;100.00
2681;BME280;1350;42.134;24.708;2024-01-06T07:15:44;99208.63;;;7.93;100.00
2681;BME280;1350;42.134;24.708;2024-01-06T07:18:11;99203.25;;;7.78;100.00
2681;BME280;1350;42.134;24.708;2024-01-06T07:20:38;99209.28;;;7.80;100.00
2681;BME280;1350;42.134;24.708;2024-01-06T07:23:05;99207.44;;;7.63;100.00
2681;BME280;1350;42.134;24.708;2024-01-06T07:25:32;99220.19;;;7.54;100.00
2681;BME280;1350;42.134;24.708;2024-01-06T07:27:59;99225.25;;;7.58;100.00
2681;BME280;1350;42.134;24.708;2024-01-06T07:30:27;99224.19;;;7.44;100.00
2681;BME280;1350;42.134;24.708;2024-01-06T07:32:54;99216.91;;;7.67;100.00
2681;BME280;1350;42.134;24.708;2024-01-06T07:35:21;99216.22;;;7.45;100.00
2681;BME280;1350;42.134;24.708;2024-01-06T07:37:48;99207.06;;;7.34;100.00
2681;BME280;1350;42.134;24.708;2024-01-06T07:40:15;99211.22;;;7.39;100.00
2681;BME280;1350;42.134;24.708;2024-01-06T07:42:42;99209.97;;;7.28;100.00
2681;BME280;1350;42.134;24.708;2024-01-06T07:45:10;99215.75;;;7.17;100.00
2681;BME280;1350;42.134;24.708;2024-01-06T07:47:40;99212.53;;;7.29;100.00
2681;BME280;1350;42.134;24.708;2024-01-06T07:50:08;99219.28;;;7.36;100.00
2681;BME280;1350;42.134;24.708;2024-01-06T07:52:35;99215.06;;;7.51;100.00
2681;BME280;1350;42.134;24.708;2024-01-06T07:55:02;99209.00;;;7.67;100.00
2681;BME280;1350;42.134;24.708;2024-01-06T07:57:29;99208.25;;;7.84;100.00
2681;BME280;1350;42.134;24.708;2024-01-06T07:59:56;99206.63;;;7.98;100.00
2681;BME280;1350;42.134;24.708;2024-01-06T08:02:23;99216.69;;;8.09;100.00
2681;BME280;1350;42.134;24.708;2024-01-06T08:04:51;99206.81;;;8.31;100.00
2681;BME280;1350;42.134;24.708;2024-01-06T08:07:19;99206.19;;;8.26;100.00
2681;BME280;1350;42.134;24.708;2024-01-06T08:09:46;99195.59;;;7.90;100.00
2681;BME280;1350;42.134;24.708;2024-01-06T08:12:13;99201.56;;;8.12;100.00
2681;BME280;1350;42.134;24.708;2024-01-06T08:14:40;99200.59;;;8.13;100.00
2681;BME280;1350;42.134;24.708;2024-01-06T08:17:07;99211.31;;;8.29;100.00
2681;BME280;1350;42.134;24.708;2024-01-06T08:19:34;99218.75;;;8.21;100.00
2681;BME280;1350;42.134;24.708;2024-01-06T08:22:03;99211.31;;;8.10;100.00
2681;BME280;1350;42.134;24.708;2024-01-06T08:24:30;99217.63;;;8.26;100.00
2681;BME280;1350;42.134;24.708;2024-01-06T08:26:56;99215.31;;;8.37;100.00
2681;BME280;1350;42.134;24.708;2024-01-06T08:29:23;99218.56;;;8.59;100.00
2681;BME280;1350;42.134;24.708;2024-01-06T08:31:50;99219.19;;;8.47;100.00
2681;BME280;1350;42.134;24.708;2024-01-06T08:34:20;99222.63;;;8.67;100.00
2681;BME280;1350;42.134;24.708;2024-01-06T08:36:47;99223.59;;;8.66;100.00
2681;BME280;1350;42.134;24.708;2024-01-06T08:39:15;99213.84;;;8.66;100.00
2681;BME280;1350;42.134;24.708;2024-01-06T08:41:42;99205.59;;;8.72;100.00
2681;BME280;1350;42.134;24.708;2024-01-06T08:44:09;99193.09;;;8.93;100.00
2681;BME280;1350;42.134;24.708;2024-01-06T08:46:37;99182.00;;;9.19;100.00
2681;BME280;1350;42.134;24.708;2024-01-06T08:49:06;99196.44;;;9.29;100.00
2681;BME280;1350;42.134;24.708;2024-01-06T08:51:33;99201.47;;;9.33;100.00
2681;BME280;1350;42.134;24.708;2024-01-06T08:54:01;99205.28;;;9.45;100.00
2681;BME280;1350;42.134;24.708;2024-01-06T08:56:32;99201.03;;;9.58;100.00
2681;BME280;1350;42.134;24.708;2024-01-06T08:58:59;99194.72;;;9.76;100.00
2681;BME280;1350;42.134;24.708;2024-01-06T09:01:26;99192.34;;;9.71;100.00
2681;BME280;1350;42.134;24.708;2024-01-06T09:03:53;99184.75;;;9.33;100.00
2681;BME280;1350;42.134;24.708;2024-01-06T09:06:20;99187.91;;;9.24;100.00
2681;BME280;1350;42.134;24.708;2024-01-06T09:08:47;99180.16;;;9.04;100.00
2681;BME280;1350;42.134;24.708;2024-01-06T09:11:14;99179.22;;;9.37;100.00
2681;BME280;1350;42.134;24.708;2024-01-06T09:13:42;99167.34;;;9.44;100.00
2681;BME280;1350;42.134;24.708;2024-01-06T09:16:09;99169.25;;;9.42;100.00
2681;BME280;1350;42.134;24.708;2024-01-06T09:18:37;99160.63;;;9.39;100.00
2681;BME280;1350;42.134;24.708;2024-01-06T09:21:04;99155.31;;;9.39;100.00
2681;BME280;1350;42.134;24.708;2024-01-06T09:23:31;99152.06;;;9.34;100.00
2681;BME280;1350;42.134;24.708;2024-01-06T09:25:58;99155.09;;;9.59;100.00
2681;BME280;1350;42.134;24.708;2024-01-06T09:28:25;99153.81;;;9.66;100.00
2681;BME280;1350;42.134;24.708;2024-01-06T09:30:53;99159.97;;;9.82;100.00
2681;BME280;1350;42.134;24.708;2024-01-06T09:33:21;99158.25;;;10.12;100.00
2681;BME280;1350;42.134;24.708;2024-01-06T09:35:48;99156.50;;;10.42;100.00
2681;BME280;1350;42.134;24.708;2024-01-06T09:38:16;99150.75;;;10.50;100.00
2681;BME280;1350;42.134;24.708;2024-01-06T09:40:44;99148.03;;;10.65;100.00
2681;BME280;1350;42.134;24.708;2024-01-06T09:43:11;99131.03;;;10.83;100.00
2681;BME280;1350;42.134;24.708;2024-01-06T09:45:39;99140.13;;;10.93;100.00
2681;BME280;1350;42.134;24.708;2024-01-06T09:48:10;99121.28;;;11.12;100.00
2681;BME280;1350;42.134;24.708;2024-01-06T09:50:40;99120.16;;;11.30;100.00
2681;BME280;1350;42.134;24.708;2024-01-06T09:53:09;99117.94;;;11.36;100.00
2681;BME280;1350;42.134;24.708;2024-01-06T09:55:38;99115.44;;;11.21;100.00
2681;BME280;1350;42.134;24.708;2024-01-06T09:58:05;99097.31;;;10.99;100.00
2681;BME280;1350;42.134;24.708;2024-01-06T10:00:32;99102.06;;;10.94;100.00
2681;BME280;1350;42.134;24.708;2024-01-06T10:02:59;99094.84;;;10.82;100.00
2681;BME280;1350;42.134;24.708;2024-01-06T10:05:28;99097.50;;;10.82;100.00
2681;BME280;1350;42.134;24.708;2024-01-06T10:07:56;99089.63;;;10.95;100.00
2681;BME280;1350;42.134;24.708;2024-01-06T10:10:23;99092.84;;;11.00;100.00
2681;BME280;1350;42.134;24.708;2024-01-06T10:12:53;99083.84;;;10.60;100.00
2681;BME280;1350;42.134;24.708;2024-01-06T10:15:21;99077.81;;;10.43;100.00
2681;BME280;1350;42.134;24.708;2024-01-06T10:17:48;99068.94;;;10.44;100.00
2681;BME280;1350;42.134;24.708;2024-01-06T10:20:15;99065.47;;;10.57;100.00
2681;BME280;1350;42.134;24.708;2024-01-06T10:22:45;99055.22;;;11.07;100.00
2681;BME280;1350;42.134;24.708;2024-01-06T10:25:12;99056.38;;;11.31;100.00
2681;BME280;1350;42.134;24.708;2024-01-06T10:27:41;99055.66;;;11.42;100.00
2681;BME280;1350;42.134;24.708;2024-01-06T10:30:09;99057.88;;;11.21;100.00
2681;BME280;1350;42.134;24.708;2024-01-06T10:32:36;99061.50;;;11.20;100.00
2681;BME280;1350;42.134;24.708;2024-01-06T10:35:04;99045.09;;;11.00;100.00
2681;BME280;1350;42.134;24.708;2024-01-06T10:37:32;99052.22;;;10.99;100.00
2681;BME280;1350;42.134;24.708;2024-01-06T10:40:08;99053.25;;;10.97;100.00
2681;BME280;1350;42.134;24.708;2024-01-06T10:42:36;99046.16;;;10.83;100.00
2681;BME280;1350;42.134;24.708;2024-01-06T10:45:06;99033.97;;;10.81;100.00
2681;BME280;1350;42.134;24.708;2024-01-06T10:47:35;99022.78;;;10.90;100.00
2681;BME280;1350;42.134;24.708;2024-01-06T10:50:01;99019.34;;;10.88;100.00
2681;BME280;1350;42.134;24.708;2024-01-06T10:52:29;99022.19;;;10.71;100.00
2681;BME280;1350;42.134;24.708;2024-01-06T10:54:56;99015.84;;;10.87;100.00
2681;BME280;1350;42.134;24.708;2024-01-06T10:57:25;99003.91;;;11.08;100.00
2681;BME280;1350;42.134;24.708;2024-01-06T10:59:58;99000.06;;;11.26;100.00
2681;BME280;1350;42.134;24.708;2024-01-06T11:02:26;98991.91;;;11.56;100.00
2681;BME280;1350;42.134;24.708;2024-01-06T11:04:53;98997.84;;;11.73;100.00
2681;BME280;1350;42.134;24.708;2024-01-06T11:07:27;98990.88;;;11.85;100.00
2681;BME280;1350;42.134;24.708;2024-01-06T11:09:57;98985.50;;;11.99;100.00
2681;BME280;1350;42.134;24.708;2024-01-06T11:12:26;98985.38;;;12.01;100.00
2681;BME280;1350;42.134;24.708;2024-01-06T11:14:53;98980.09;;;12.51;98.55
2681;BME280;1350;42.134;24.708;2024-01-06T11:17:50;98986.09;;;13.15;93.76
2681;BME280;1350;42.134;24.708;2024-01-06T11:20:19;98984.88;;;13.55;89.00
2681;BME280;1350;42.134;24.708;2024-01-06T11:22:47;98974.63;;;13.38;89.23
2681;BME280;1350;42.134;24.708;2024-01-06T11:25:16;98965.84;;;13.73;87.85
2681;BME280;1350;42.134;24.708;2024-01-06T11:27:46;98966.88;;;13.59;87.30
2681;BME280;1350;42.134;24.708;2024-01-06T11:30:20;98959.06;;;13.80;87.57
2681;BME280;1350;42.134;24.708;2024-01-06T11:32:47;98962.28;;;14.30;85.37
2681;BME280;1350;42.134;24.708;2024-01-06T11:35:16;98953.56;;;14.39;83.34
2681;BME280;1350;42.134;24.708;2024-01-06T11:37:54;98949.47;;;14.68;82.12
2681;BME280;1350;42.134;24.708;2024-01-06T11:40:29;98946.91;;;14.34;84.06
2681;BME280;1350;42.134;24.708;2024-01-06T11:43:01;98942.44;;;14.00;87.42
2681;BME280;1350;42.134;24.708;2024-01-06T11:45:29;98944.38;;;14.09;87.50
2681;BME280;1350;42.134;24.708;2024-01-06T11:47:58;98950.38;;;13.89;89.33
2681;BME280;1350;42.134;24.708;2024-01-06T11:50:25;98946.28;;;13.61;91.30
2681;BME280;1350;42.134;24.708;2024-01-06T11:52:53;98951.06;;;13.45;94.39
2681;BME280;1350;42.134;24.708;2024-01-06T11:55:20;98942.47;;;13.76;95.82
2681;BME280;1350;42.134;24.708;2024-01-06T11:57:47;98937.88;;;14.13;92.00
2681;BME280;1350;42.134;24.708;2024-01-06T12:00:17;98930.69;;;14.13;92.52
2681;BME280;1350;42.134;24.708;2024-01-06T12:02:45;98929.22;;;14.66;90.21
2681;BME280;1350;42.134;24.708;2024-01-06T12:05:13;98930.47;;;15.38;87.08
2681;BME280;1350;42.134;24.708;2024-01-06T12:07:41;98939.16;;;15.62;84.25
2681;BME280;1350;42.134;24.708;2024-01-06T12:10:09;98940.81;;;15.94;80.78
2681;BME280;1350;42.134;24.708;2024-01-06T12:12:37;98928.75;;;16.20;79.75
2681;BME280;1350;42.134;24.708;2024-01-06T12:15:05;98926.13;;;16.50;76.22
2681;BME280;1350;42.134;24.708;2024-01-06T12:17:39;98921.19;;;16.46;75.86
2681;BME280;1350;42.134;24.708;2024-01-06T12:20:07;98911.25;;;16.57;75.66
2681;BME280;1350;42.134;24.708;2024-01-06T12:22:36;98912.22;;;16.96;73.42
2681;BME280;1350;42.134;24.708;2024-01-06T12:25:03;98917.31;;;16.90;72.35
2681;BME280;1350;42.134;24.708;2024-01-06T12:27:33;98911.06;;;16.49;74.76
2681;BME280;1350;42.134;24.708;2024-01-06T12:30:00;98907.78;;;16.25;76.79
2681;BME280;1350;42.134;24.708;2024-01-06T12:32:27;98898.47;;;16.20;77.37
2681;BME280;1350;42.134;24.708;2024-01-06T12:34:56;98898.88;;;15.95;79.03
2681;BME280;1350;42.134;24.708;2024-01-06T12:37:24;98911.13;;;15.77;80.42
2681;BME280;1350;42.134;24.708;2024-01-06T12:39:50;98906.00;;;15.85;80.03
2681;BME280;1350;42.134;24.708;2024-01-06T12:42:17;98889.84;;;15.55;82.31
2681;BME280;1350;42.134;24.708;2024-01-06T12:44:47;98888.66;;;15.37;84.13
2681;BME280;1350;42.134;24.708;2024-01-06T12:47:14;98893.91;;;15.38;83.89
2681;BME280;1350;42.134;24.708;2024-01-06T12:49:42;98905.84;;;15.23;84.75
2681;BME280;1350;42.134;24.708;2024-01-06T12:52:10;98888.31;;;14.87;86.67
2681;BME280;1350;42.134;24.708;2024-01-06T12:54:37;98881.41;;;14.85;88.63
2681;BME280;1350;42.134;24.708;2024-01-06T12:57:04;98879.75;;;14.62;90.82
2681;BME280;1350;42.134;24.708;2024-01-06T12:59:31;98882.63;;;14.81;89.96
2681;BME280;1350;42.134;24.708;2024-01-06T13:01:58;98871.13;;;14.47;91.99
2681;BME280;1350;42.134;24.708;2024-01-06T13:04:25;98869.44;;;14.24;93.74
2681;BME280;1350;42.134;24.708;2024-01-06T13:06:52;98871.91;;;13.93;96.31
2681;BME280;1350;42.134;24.708;2024-01-06T13:09:21;98877.31;;;14.26;95.31
2681;BME280;1350;42.134;24.708;2024-01-06T13:11:49;98886.75;;;14.74;92.35